Burnt Water, Arizona
Current Conditions -  °F | °C
As of 8:53 AM on Sunday 23 Nov 2014 (Local Time) from KGUP Reporting Station
Light Snow Light Snow  
Wind Chill: 26°   Ceiling: 9000
Heat Index: 34°   Visibility: 8mi
Dew Point: 27°   Wind: 10mph
Humidity: 75%   Direction: 310°NW
Pressure: 29.99"   Gusts: NA
Location:  35.3778°N, 109.355°W
Report Text: KGUP 231553Z AUTO 31009KT 8SM -SN SCT023 SCT035 BKN090 01/M03 A2999 RMK AO2 SNE05B41 SLP134 P0000 T00111028
Loading
Personal Weather Stations






























Interactive Weather Map New forecast layout! Learn more

10-Day Weather Forecast

Advertisements
Track Severe Weather on mobile